sensor_id;sensor_type;location;lat;lon;timestamp;pressure;altitude;pressure_sealevel;temperature;humidity
78615;BME280;67937;52.488;20.952;2023-04-29T00:00:48;100671.38;;;6.83;59.38
78615;BME280;67937;52.488;20.952;2023-04-29T00:03:17;100669.31;;;6.83;59.52
78615;BME280;67937;52.488;20.952;2023-04-29T00:05:45;100663.08;;;6.79;59.71
78615;BME280;67937;52.488;20.952;2023-04-29T00:08:13;100669.16;;;6.76;59.77
78615;BME280;67937;52.488;20.952;2023-04-29T00:10:41;100667.84;;;6.78;59.72
78615;BME280;67937;52.488;20.952;2023-04-29T00:13:09;100663.55;;;6.73;59.74
78615;BME280;67937;52.488;20.952;2023-04-29T00:15:40;100664.13;;;6.78;59.81
78615;BME280;67937;52.488;20.952;2023-04-29T00:18:08;100666.91;;;6.73;59.69
78615;BME280;67937;52.488;20.952;2023-04-29T00:20:37;100664.81;;;6.73;59.88
78615;BME280;67937;52.488;20.952;2023-04-29T00:23:06;100664.73;;;6.71;59.87
78615;BME280;67937;52.488;20.952;2023-04-29T00:25:34;100665.27;;;6.71;59.84
78615;BME280;67937;52.488;20.952;2023-04-29T00:28:07;100659.58;;;6.66;59.79
78615;BME280;67937;52.488;20.952;2023-04-29T00:30:35;100660.08;;;6.64;59.87
78615;BME280;67937;52.488;20.952;2023-04-29T00:33:03;100658.50;;;6.61;59.76
78615;BME280;67937;52.488;20.952;2023-04-29T00:35:31;100654.75;;;6.62;59.70
78615;BME280;67937;52.488;20.952;2023-04-29T00:38:00;100649.55;;;6.58;59.76
78615;BME280;67937;52.488;20.952;2023-04-29T00:40:28;100650.79;;;6.58;59.59
78615;BME280;67937;52.488;20.952;2023-04-29T00:42:56;100650.96;;;6.61;59.75
78615;BME280;67937;52.488;20.952;2023-04-29T00:45:24;100646.44;;;6.51;59.87
78615;BME280;67937;52.488;20.952;2023-04-29T00:47:53;100645.10;;;6.50;59.95
78615;BME280;67937;52.488;20.952;2023-04-29T00:50:21;100642.73;;;6.52;59.78
78615;BME280;67937;52.488;20.952;2023-04-29T00:52:50;100638.66;;;6.49;59.85
78615;BME280;67937;52.488;20.952;2023-04-29T00:55:18;100635.09;;;6.47;59.92
78615;BME280;67937;52.488;20.952;2023-04-29T00:57:47;100636.27;;;6.42;59.89
78615;BME280;67937;52.488;20.952;2023-04-29T01:00:18;100635.88;;;6.42;60.08
78615;BME280;67937;52.488;20.952;2023-04-29T01:02:47;100634.31;;;6.43;60.07
78615;BME280;67937;52.488;20.952;2023-04-29T01:05:16;100625.42;;;6.38;60.09
78615;BME280;67937;52.488;20.952;2023-04-29T01:10:48;100633.77;;;6.40;60.26
78615;BME280;67937;52.488;20.952;2023-04-29T01:13:29;100631.95;;;6.38;59.88
78615;BME280;67937;52.488;20.952;2023-04-29T01:16:02;100630.89;;;6.38;60.05
78615;BME280;67937;52.488;20.952;2023-04-29T01:18:40;100629.56;;;6.43;60.15
78615;BME280;67937;52.488;20.952;2023-04-29T01:21:11;100635.05;;;6.39;60.33
78615;BME280;67937;52.488;20.952;2023-04-29T01:23:39;100628.92;;;6.39;60.19
78615;BME280;67937;52.488;20.952;2023-04-29T01:26:07;100634.40;;;6.41;60.23
78615;BME280;67937;52.488;20.952;2023-04-29T01:28:55;100634.71;;;6.39;60.45
78615;BME280;67937;52.488;20.952;2023-04-29T01:31:37;100639.84;;;6.38;60.60
78615;BME280;67937;52.488;20.952;2023-04-29T01:34:18;100633.71;;;6.38;60.70
78615;BME280;67937;52.488;20.952;2023-04-29T01:37:09;100638.44;;;6.38;60.78
78615;BME280;67937;52.488;20.952;2023-04-29T01:39:50;100637.80;;;6.37;60.92
78615;BME280;67937;52.488;20.952;2023-04-29T01:43:17;100632.30;;;6.41;61.02
78615;BME280;67937;52.488;20.952;2023-04-29T01:45:21;100632.45;;;6.42;61.20
78615;BME280;67937;52.488;20.952;2023-04-29T01:47:52;100634.83;;;6.43;61.18
78615;BME280;67937;52.488;20.952;2023-04-29T01:50:21;100634.71;;;6.36;61.30
78615;BME280;67937;52.488;20.952;2023-04-29T01:52:49;100632.48;;;6.37;61.18
78615;BME280;67937;52.488;20.952;2023-04-29T01:55:18;100631.40;;;6.38;61.16
78615;BME280;67937;52.488;20.952;2023-04-29T01:57:47;100630.98;;;6.40;61.27
78615;BME280;67937;52.488;20.952;2023-04-29T02:00:15;100629.16;;;6.41;61.49
78615;BME280;67937;52.488;20.952;2023-04-29T02:02:43;100624.05;;;6.35;61.50
78615;BME280;67937;52.488;20.952;2023-04-29T02:05:11;100622.58;;;6.36;61.50
78615;BME280;67937;52.488;20.952;2023-04-29T02:07:39;100624.09;;;6.37;61.41
78615;BME280;67937;52.488;20.952;2023-04-29T02:10:08;100621.39;;;6.44;61.95
78615;BME280;67937;52.488;20.952;2023-04-29T02:12:37;100622.98;;;6.38;61.95
78615;BME280;67937;52.488;20.952;2023-04-29T02:15:06;100623.99;;;6.39;61.89
78615;BME280;67937;52.488;20.952;2023-04-29T02:17:34;100621.75;;;6.41;61.93
78615;BME280;67937;52.488;20.952;2023-04-29T02:20:03;100620.25;;;6.43;61.88
78615;BME280;67937;52.488;20.952;2023-04-29T02:22:31;100619.07;;;6.48;62.04
78615;BME280;67937;52.488;20.952;2023-04-29T02:24:59;100616.90;;;6.47;62.12
78615;BME280;67937;52.488;20.952;2023-04-29T02:27:27;100614.17;;;6.45;61.99
78615;BME280;67937;52.488;20.952;2023-04-29T02:29:55;100613.61;;;6.46;61.84
78615;BME280;67937;52.488;20.952;2023-04-29T02:32:23;100609.42;;;6.48;61.67
78615;BME280;67937;52.488;20.952;2023-04-29T02:34:51;100610.27;;;6.49;61.67
78615;BME280;67937;52.488;20.952;2023-04-29T02:37:19;100609.64;;;6.51;61.70
78615;BME280;67937;52.488;20.952;2023-04-29T02:39:47;100606.11;;;6.48;61.67
78615;BME280;67937;52.488;20.952;2023-04-29T02:42:15;100607.76;;;6.50;61.78
78615;BME280;67937;52.488;20.952;2023-04-29T02:44:43;100608.55;;;6.51;61.76
78615;BME280;67937;52.488;20.952;2023-04-29T02:47:11;100610.72;;;6.50;61.72
78615;BME280;67937;52.488;20.952;2023-04-29T02:49:39;100611.15;;;6.52;61.50
78615;BME280;67937;52.488;20.952;2023-04-29T02:52:07;100613.00;;;6.50;61.80
78615;BME280;67937;52.488;20.952;2023-04-29T02:54:35;100615.41;;;6.51;61.83
78615;BME280;67937;52.488;20.952;2023-04-29T02:57:04;100615.91;;;6.52;61.64
78615;BME280;67937;52.488;20.952;2023-04-29T02:59:33;100612.68;;;6.49;61.57
78615;BME280;67937;52.488;20.952;2023-04-29T03:02:01;100611.22;;;6.51;61.77
78615;BME280;67937;52.488;20.952;2023-04-29T03:04:29;100610.19;;;6.50;61.84
78615;BME280;67937;52.488;20.952;2023-04-29T03:06:57;100610.11;;;6.52;61.88
78615;BME280;67937;52.488;20.952;2023-04-29T03:09:26;100612.80;;;6.54;61.74
78615;BME280;67937;52.488;20.952;2023-04-29T03:11:54;100610.23;;;6.55;61.83
78615;BME280;67937;52.488;20.952;2023-04-29T03:14:22;100612.06;;;6.55;61.91
78615;BME280;67937;52.488;20.952;2023-04-29T03:16:50;100610.19;;;6.56;61.97
78615;BME280;67937;52.488;20.952;2023-04-29T03:19:18;100603.73;;;6.59;61.89
78615;BME280;67937;52.488;20.952;2023-04-29T03:21:46;100600.96;;;6.55;61.99
78615;BME280;67937;52.488;20.952;2023-04-29T03:24:14;100602.23;;;6.55;61.92
78615;BME280;67937;52.488;20.952;2023-04-29T03:26:42;100598.67;;;6.55;61.79
78615;BME280;67937;52.488;20.952;2023-04-29T03:29:10;100601.92;;;6.54;61.91
78615;BME280;67937;52.488;20.952;2023-04-29T03:31:39;100600.85;;;6.54;61.91
78615;BME280;67937;52.488;20.952;2023-04-29T03:34:07;100605.05;;;6.61;61.67
78615;BME280;67937;52.488;20.952;2023-04-29T03:36:35;100604.41;;;6.59;61.73
78615;BME280;67937;52.488;20.952;2023-04-29T03:39:03;100601.92;;;6.60;61.83
78615;BME280;67937;52.488;20.952;2023-04-29T03:41:31;100600.23;;;6.56;61.71
78615;BME280;67937;52.488;20.952;2023-04-29T03:44:00;100601.60;;;6.59;61.69
78615;BME280;67937;52.488;20.952;2023-04-29T03:46:28;100603.41;;;6.58;61.63
78615;BME280;67937;52.488;20.952;2023-04-29T03:48:56;100597.92;;;6.62;61.61
78615;BME280;67937;52.488;20.952;2023-04-29T03:51:25;100602.11;;;6.63;61.62
78615;BME280;67937;52.488;20.952;2023-04-29T03:53:54;100602.20;;;6.67;61.60
78615;BME280;67937;52.488;20.952;2023-04-29T03:56:24;100599.52;;;6.68;61.77
78615;BME280;67937;52.488;20.952;2023-04-29T03:58:52;100598.98;;;6.71;61.85
78615;BME280;67937;52.488;20.952;2023-04-29T04:01:20;100600.73;;;6.71;61.77
78615;BME280;67937;52.488;20.952;2023-04-29T04:03:48;100598.75;;;6.75;61.63
78615;BME280;67937;52.488;20.952;2023-04-29T04:06:16;100599.34;;;6.79;61.92
78615;BME280;67937;52.488;20.952;2023-04-29T04:08:44;100600.52;;;6.80;61.87
78615;BME280;67937;52.488;20.952;2023-04-29T04:11:12;100597.63;;;6.87;61.98
78615;BME280;67937;52.488;20.952;2023-04-29T04:13:41;100596.25;;;6.84;61.94
78615;BME280;67937;52.488;20.952;2023-04-29T04:16:10;100596.62;;;6.96;61.74
78615;BME280;67937;52.488;20.952;2023-04-29T04:18:38;100597.48;;;6.93;61.93
78615;BME280;67937;52.488;20.952;2023-04-29T04:21:07;100594.83;;;6.93;61.76
78615;BME280;67937;52.488;20.952;2023-04-29T04:23:36;100593.90;;;7.03;61.55
78615;BME280;67937;52.488;20.952;2023-04-29T04:26:06;100591.75;;;7.03;61.81
78615;BME280;67937;52.488;20.952;2023-04-29T04:28:34;100596.95;;;7.10;61.59
78615;BME280;67937;52.488;20.952;2023-04-29T04:31:02;100595.34;;;7.19;61.66
78615;BME280;67937;52.488;20.952;2023-04-29T04:33:31;100596.00;;;7.20;61.56
78615;BME280;67937;52.488;20.952;2023-04-29T04:36:00;100594.55;;;7.24;61.39
78615;BME280;67937;52.488;20.952;2023-04-29T04:38:28;100594.05;;;7.29;61.23
78615;BME280;67937;52.488;20.952;2023-04-29T04:40:56;100595.20;;;7.36;60.99
78615;BME280;67937;52.488;20.952;2023-04-29T04:43:24;100592.95;;;7.40;60.99
78615;BME280;67937;52.488;20.952;2023-04-29T04:45:52;100596.45;;;7.46;60.86
78615;BME280;67937;52.488;20.952;2023-04-29T04:48:20;100591.02;;;7.46;60.83
78615;BME280;67937;52.488;20.952;2023-04-29T04:50:48;100588.02;;;7.63;60.37
78615;BME280;67937;52.488;20.952;2023-04-29T04:53:16;100585.26;;;7.62;60.31
78615;BME280;67937;52.488;20.952;2023-04-29T04:55:44;100582.05;;;7.66;60.26
78615;BME280;67937;52.488;20.952;2023-04-29T04:58:12;100583.33;;;7.73;60.15
78615;BME280;67937;52.488;20.952;2023-04-29T05:00:44;100580.13;;;7.74;60.06
78615;BME280;67937;52.488;20.952;2023-04-29T05:03:12;100579.47;;;7.84;59.92
78615;BME280;67937;52.488;20.952;2023-04-29T05:05:40;100582.83;;;7.87;60.10
78615;BME280;67937;52.488;20.952;2023-04-29T05:08:08;100579.27;;;7.96;59.74
78615;BME280;67937;52.488;20.952;2023-04-29T05:10:36;100581.08;;;7.95;59.92
78615;BME280;67937;52.488;20.952;2023-04-29T05:13:04;100580.95;;;7.99;59.91
78615;BME280;67937;52.488;20.952;2023-04-29T05:15:34;100577.58;;;8.11;59.82
78615;BME280;67937;52.488;20.952;2023-04-29T05:18:02;100573.59;;;8.21;59.36
78615;BME280;67937;52.488;20.952;2023-04-29T05:20:30;100578.66;;;8.27;59.51
78615;BME280;67937;52.488;20.952;2023-04-29T05:22:58;100572.39;;;8.31;59.61
78615;BME280;67937;52.488;20.952;2023-04-29T05:25:26;100574.78;;;8.43;59.49
78615;BME280;67937;52.488;20.952;2023-04-29T05:27:54;100573.59;;;8.55;59.50
78615;BME280;67937;52.488;20.952;2023-04-29T05:30:23;100567.15;;;8.72;59.48
78615;BME280;67937;52.488;20.952;2023-04-29T05:32:51;100564.41;;;8.83;59.11
78615;BME280;67937;52.488;20.952;2023-04-29T05:35:19;100558.96;;;8.88;59.02
78615;BME280;67937;52.488;20.952;2023-04-29T05:37:47;100560.98;;;8.92;59.13
78615;BME280;67937;52.488;20.952;2023-04-29T05:40:15;100559.92;;;9.00;58.91
78615;BME280;67937;52.488;20.952;2023-04-29T05:42:43;100560.58;;;9.06;58.79
78615;BME280;67937;52.488;20.952;2023-04-29T05:45:12;100557.27;;;9.10;58.94
78615;BME280;67937;52.488;20.952;2023-04-29T05:47:40;100558.83;;;9.18;58.82
78615;BME280;67937;52.488;20.952;2023-04-29T05:50:08;100562.52;;;9.28;58.63
78615;BME280;67937;52.488;20.952;2023-04-29T05:52:37;100562.73;;;9.43;58.21
78615;BME280;67937;52.488;20.952;2023-04-29T05:55:06;100567.28;;;9.48;58.07
78615;BME280;67937;52.488;20.952;2023-04-29T05:57:34;100566.60;;;9.55;58.33
78615;BME280;67937;52.488;20.952;2023-04-29T06:00:02;100563.27;;;9.59;58.50
78615;BME280;67937;52.488;20.952;2023-04-29T06:02:32;100561.81;;;9.72;58.03
78615;BME280;67937;52.488;20.952;2023-04-29T06:05:00;100557.27;;;9.82;57.68
78615;BME280;67937;52.488;20.952;2023-04-29T06:07:29;100560.94;;;9.87;57.28
78615;BME280;67937;52.488;20.952;2023-04-29T06:09:58;100558.31;;;9.98;57.11
78615;BME280;67937;52.488;20.952;2023-04-29T06:12:26;100558.89;;;10.04;56.84
78615;BME280;67937;52.488;20.952;2023-04-29T06:14:55;100559.55;;;10.13;56.82
78615;BME280;67937;52.488;20.952;2023-04-29T06:17:23;100560.87;;;10.26;56.41
78615;BME280;67937;52.488;20.952;2023-04-29T06:19:51;100562.55;;;10.39;56.18
78615;BME280;67937;52.488;20.952;2023-04-29T06:22:19;100554.86;;;10.61;56.03
78615;BME280;67937;52.488;20.952;2023-04-29T06:24:48;100554.44;;;10.81;55.48
78615;BME280;67937;52.488;20.952;2023-04-29T06:27:16;100557.52;;;11.00;55.54
78615;BME280;67937;52.488;20.952;2023-04-29T06:29:44;100557.38;;;11.17;55.01
78615;BME280;67937;52.488;20.952;2023-04-29T06:32:13;100558.11;;;11.39;54.18
78615;BME280;67937;52.488;20.952;2023-04-29T06:34:41;100555.53;;;11.49;53.38
78615;BME280;67937;52.488;20.952;2023-04-29T06:37:11;100557.62;;;11.56;54.09
78615;BME280;67937;52.488;20.952;2023-04-29T06:39:39;100560.33;;;11.86;52.59
78615;BME280;67937;52.488;20.952;2023-04-29T06:42:07;100560.61;;;12.00;52.82
78615;BME280;67937;52.488;20.952;2023-04-29T06:44:35;100563.14;;;12.16;51.84
78615;BME280;67937;52.488;20.952;2023-04-29T06:47:04;100560.71;;;12.26;51.95
78615;BME280;67937;52.488;20.952;2023-04-29T06:49:32;100562.72;;;12.45;51.89
78615;BME280;67937;52.488;20.952;2023-04-29T06:52:00;100559.82;;;12.62;52.24
78615;BME280;67937;52.488;20.952;2023-04-29T06:54:29;100557.03;;;12.82;52.12
78615;BME280;67937;52.488;20.952;2023-04-29T06:56:57;100557.46;;;13.07;52.23
78615;BME280;67937;52.488;20.952;2023-04-29T06:59:25;100554.65;;;13.29;51.28
78615;BME280;67937;52.488;20.952;2023-04-29T07:01:53;100547.41;;;13.42;50.63
78615;BME280;67937;52.488;20.952;2023-04-29T07:04:21;100550.11;;;13.62;49.40
78615;BME280;67937;52.488;20.952;2023-04-29T07:06:49;100545.34;;;13.66;49.54
78615;BME280;67937;52.488;20.952;2023-04-29T07:09:19;100547.15;;;13.83;49.56
78615;BME280;67937;52.488;20.952;2023-04-29T07:11:49;100541.51;;;14.02;49.58
78615;BME280;67937;52.488;20.952;2023-04-29T07:14:17;100537.98;;;14.21;48.36
78615;BME280;67937;52.488;20.952;2023-04-29T07:16:45;100539.58;;;14.21;47.65
78615;BME280;67937;52.488;20.952;2023-04-29T07:19:13;100533.54;;;14.08;47.30
78615;BME280;67937;52.488;20.952;2023-04-29T07:21:41;100536.20;;;13.92;48.23
78615;BME280;67937;52.488;20.952;2023-04-29T07:24:09;100531.55;;;13.91;48.50
78615;BME280;67937;52.488;20.952;2023-04-29T07:26:38;100532.17;;;14.01;48.32
78615;BME280;67937;52.488;20.952;2023-04-29T07:29:06;100534.13;;;14.11;48.10
78615;BME280;67937;52.488;20.952;2023-04-29T07:31:34;100530.09;;;14.22;48.01
78615;BME280;67937;52.488;20.952;2023-04-29T07:34:03;100529.17;;;14.22;47.87
78615;BME280;67937;52.488;20.952;2023-04-29T07:36:31;100525.39;;;14.29;48.19
78615;BME280;67937;52.488;20.952;2023-04-29T07:39:00;100526.52;;;14.59;47.25
78615;BME280;67937;52.488;20.952;2023-04-29T07:41:28;100528.47;;;14.66;46.95
78615;BME280;67937;52.488;20.952;2023-04-29T07:43:56;100526.59;;;14.84;47.40
78615;BME280;67937;52.488;20.952;2023-04-29T07:46:24;100526.04;;;15.09;46.75
78615;BME280;67937;52.488;20.952;2023-04-29T07:48:53;100521.02;;;15.31;46.98
78615;BME280;67937;52.488;20.952;2023-04-29T07:51:21;100521.47;;;15.53;46.40
78615;BME280;67937;52.488;20.952;2023-04-29T07:53:49;100521.27;;;15.62;45.86
78615;BME280;67937;52.488;20.952;2023-04-29T07:56:17;100521.77;;;15.70;44.88
78615;BME280;67937;52.488;20.952;2023-04-29T07:58:45;100523.40;;;15.69;44.96
78615;BME280;67937;52.488;20.952;2023-04-29T08:01:13;100520.58;;;15.76;45.02
78615;BME280;67937;52.488;20.952;2023-04-29T08:03:41;100521.11;;;15.81;45.62
78615;BME280;67937;52.488;20.952;2023-04-29T08:06:09;100524.52;;;15.95;45.63
78615;BME280;67937;52.488;20.952;2023-04-29T08:08:38;100520.23;;;15.98;45.22
78615;BME280;67937;52.488;20.952;2023-04-29T08:11:06;100522.41;;;16.15;44.70
78615;BME280;67937;52.488;20.952;2023-04-29T08:13:34;100518.33;;;16.21;44.79
78615;BME280;67937;52.488;20.952;2023-04-29T08:16:02;100520.73;;;16.38;43.66
78615;BME280;67937;52.488;20.952;2023-04-29T08:18:30;100513.75;;;16.37;42.43
78615;BME280;67937;52.488;20.952;2023-04-29T08:20:58;100515.12;;;16.24;43.72
78615;BME280;67937;52.488;20.952;2023-04-29T08:23:26;100512.95;;;16.38;44.07
78615;BME280;67937;52.488;20.952;2023-04-29T08:25:54;100508.58;;;16.74;43.33
78615;BME280;67937;52.488;20.952;2023-04-29T08:28:23;100512.30;;;16.76;43.68
78615;BME280;67937;52.488;20.952;2023-04-29T08:30:51;100506.06;;;16.86;42.50
78615;BME280;67937;52.488;20.952;2023-04-29T08:33:19;100506.38;;;16.75;42.72
78615;BME280;67937;52.488;20.952;2023-04-29T08:35:47;100504.66;;;16.77;42.96
78615;BME280;67937;52.488;20.952;2023-04-29T08:38:15;100501.29;;;16.79;43.53
78615;BME280;67937;52.488;20.952;2023-04-29T08:40:44;100500.42;;;16.91;43.39
78615;BME280;67937;52.488;20.952;2023-04-29T08:43:13;100500.02;;;17.01;43.17
78615;BME280;67937;52.488;20.952;2023-04-29T08:45:42;100502.30;;;17.09;43.21
78615;BME280;67937;52.488;20.952;2023-04-29T08:48:10;100497.77;;;17.02;42.19
78615;BME280;67937;52.488;20.952;2023-04-29T08:50:40;100493.30;;;16.99;42.38
78615;BME280;67937;52.488;20.952;2023-04-29T08:53:10;100490.98;;;16.91;41.19
78615;BME280;67937;52.488;20.952;2023-04-29T08:55:43;100485.69;;;16.83;41.93
78615;BME280;67937;52.488;20.952;2023-04-29T08:58:12;100488.08;;;16.91;41.65
78615;BME280;67937;52.488;20.952;2023-04-29T09:00:42;100490.20;;;16.89;41.48
78615;BME280;67937;52.488;20.952;2023-04-29T09:03:23;100483.41;;;16.95;41.90
78615;BME280;67937;52.488;20.952;2023-04-29T09:05:55;100487.63;;;16.90;41.33
78615;BME280;67937;52.488;20.952;2023-04-29T09:08:27;100490.50;;;16.86;41.14
78615;BME280;67937;52.488;20.952;2023-04-29T09:10:55;100487.09;;;17.04;40.95
78615;BME280;67937;52.488;20.952;2023-04-29T09:13:29;100488.46;;;17.04;41.33
78615;BME280;67937;52.488;20.952;2023-04-29T09:15:57;100482.02;;;17.37;41.47
78615;BME280;67937;52.488;20.952;2023-04-29T09:21:23;100479.84;;;17.62;41.36
78615;BME280;67937;52.488;20.952;2023-04-29T09:23:54;100479.73;;;17.70;40.43
78615;BME280;67937;52.488;20.952;2023-04-29T09:26:23;100475.75;;;17.84;39.39
78615;BME280;67937;52.488;20.952;2023-04-29T09:29:08;100476.17;;;17.68;39.79
78615;BME280;67937;52.488;20.952;2023-04-29T09:31:37;100472.37;;;17.84;39.14
78615;BME280;67937;52.488;20.952;2023-04-29T09:34:06;100472.31;;;17.86;39.44
78615;BME280;67937;52.488;20.952;2023-04-29T09:36:41;100473.34;;;18.03;39.44
78615;BME280;67937;52.488;20.952;2023-04-29T09:39:15;100478.39;;;18.15;38.82
78615;BME280;67937;52.488;20.952;2023-04-29T09:44:32;100470.98;;;18.05;38.99
78615;BME280;67937;52.488;20.952;2023-04-29T09:47:06;100466.06;;;18.12;38.27
78615;BME280;67937;52.488;20.952;2023-04-29T09:52:12;100468.71;;;18.11;38.79
78615;BME280;67937;52.488;20.952;2023-04-29T09:54:41;100468.88;;;18.12;38.53
78615;BME280;67937;52.488;20.952;2023-04-29T09:57:11;100468.83;;;18.03;38.92
78615;BME280;67937;52.488;20.952;2023-04-29T09:59:41;100463.79;;;18.10;39.47
78615;BME280;67937;52.488;20.952;2023-04-29T10:02:12;100462.91;;;18.15;39.18
78615;BME280;67937;52.488;20.952;2023-04-29T10:04:44;100460.94;;;18.21;38.63
78615;BME280;67937;52.488;20.952;2023-04-29T10:07:14;100452.04;;;18.18;38.67
78615;BME280;67937;52.488;20.952;2023-04-29T10:09:44;100451.48;;;18.23;38.45
78615;BME280;67937;52.488;20.952;2023-04-29T10:12:16;100448.39;;;18.15;38.38
78615;BME280;67937;52.488;20.952;2023-04-29T10:14:50;100442.46;;;18.27;38.99
78615;BME280;67937;52.488;20.952;2023-04-29T10:17:35;100445.15;;;18.43;38.66
78615;BME280;67937;52.488;20.952;2023-04-29T10:20:07;100446.25;;;18.56;39.05
78615;BME280;67937;52.488;20.952;2023-04-29T10:22:50;100442.50;;;18.46;38.63
78615;BME280;67937;52.488;20.952;2023-04-29T10:25:21;100440.20;;;18.41;39.16
78615;BME280;67937;52.488;20.952;2023-04-29T10:27:50;100439.95;;;18.53;39.19
78615;BME280;67937;52.488;20.952;2023-04-29T10:30:20;100442.35;;;18.52;38.81
78615;BME280;67937;52.488;20.952;2023-04-29T10:32:49;100439.91;;;18.58;39.31
78615;BME280;67937;52.488;20.952;2023-04-29T10:35:19;100434.70;;;18.68;38.86
78615;BME280;67937;52.488;20.952;2023-04-29T10:37:51;100433.06;;;18.55;38.69
78615;BME280;67937;52.488;20.952;2023-04-29T10:40:26;100434.86;;;18.28;38.84
78615;BME280;67937;52.488;20.952;2023-04-29T10:42:57;100430.65;;;18.29;39.44
78615;BME280;67937;52.488;20.952;2023-04-29T10:53:18;100422.78;;;18.53;39.57
78615;BME280;67937;52.488;20.952;2023-04-29T10:55:52;100412.23;;;18.40;40.18
78615;BME280;67937;52.488;20.952;2023-04-29T10:58:34;100417.05;;;18.53;39.20
78615;BME280;67937;52.488;20.952;2023-04-29T11:01:03;100415.35;;;18.38;39.09
78615;BME280;67937;52.488;20.952;2023-04-29T11:06:16;100412.48;;;18.34;39.35
78615;BME280;67937;52.488;20.952;2023-04-29T11:08:44;100414.80;;;18.60;40.12
78615;BME280;67937;52.488;20.952;2023-04-29T11:11:12;100408.19;;;18.79;39.16
78615;BME280;67937;52.488;20.952;2023-04-29T11:13:45;100409.20;;;18.89;38.47
78615;BME280;67937;52.488;20.952;2023-04-29T11:16:13;100411.20;;;18.90;39.21
78615;BME280;67937;52.488;20.952;2023-04-29T11:19:08;100409.45;;;18.99;39.24
78615;BME280;67937;52.488;20.952;2023-04-29T11:21:37;100392.55;;;19.23;39.58
78615;BME280;67937;52.488;20.952;2023-04-29T11:24:06;100399.34;;;19.20;39.09
78615;BME280;67937;52.488;20.952;2023-04-29T11:26:34;100397.61;;;19.09;38.81
78615;BME280;67937;52.488;20.952;2023-04-29T11:29:07;100396.95;;;18.94;39.98
78615;BME280;67937;52.488;20.952;2023-04-29T11:31:36;100393.20;;;18.90;39.34
78615;BME280;67937;52.488;20.952;2023-04-29T11:34:04;100392.21;;;18.86;38.95
78615;BME280;67937;52.488;20.952;2023-04-29T11:36:33;100378.71;;;18.96;37.97
78615;BME280;67937;52.488;20.952;2023-04-29T11:39:03;100377.80;;;18.98;37.74
78615;BME280;67937;52.488;20.952;2023-04-29T11:41:31;100381.55;;;19.15;38.66
78615;BME280;67937;52.488;20.952;2023-04-29T11:44:01;100383.20;;;19.30;38.74
78615;BME280;67937;52.488;20.952;2023-04-29T11:46:30;100385.04;;;19.42;38.81
78615;BME280;67937;52.488;20.952;2023-04-29T11:48:58;100384.64;;;19.47;38.64
78615;BME280;67937;52.488;20.952;2023-04-29T11:51:27;100382.17;;;19.39;38.27
78615;BME280;67937;52.488;20.952;2023-04-29T11:53:55;100384.17;;;19.48;38.64
78615;BME280;67937;52.488;20.952;2023-04-29T11:56:24;100382.23;;;19.63;38.65
78615;BME280;67937;52.488;20.952;2023-04-29T11:58:54;100375.39;;;19.62;38.90
78615;BME280;67937;52.488;20.952;2023-04-29T12:01:24;100370.89;;;19.78;38.54
78615;BME280;67937;52.488;20.952;2023-04-29T12:03:56;100368.67;;;19.95;38.34
78615;BME280;67937;52.488;20.952;2023-04-29T12:06:27;100363.88;;;20.16;37.76
78615;BME280;67937;52.488;20.952;2023-04-29T12:08:58;100362.38;;;20.09;37.95
78615;BME280;67937;52.488;20.952;2023-04-29T12:11:27;100361.84;;;20.02;38.27
78615;BME280;67937;52.488;20.952;2023-04-29T12:13:56;100361.33;;;19.69;38.60
78615;BME280;67937;52.488;20.952;2023-04-29T12:16:28;100360.71;;;19.60;38.52
78615;BME280;67937;52.488;20.952;2023-04-29T12:18:57;100355.98;;;19.62;38.22
78615;BME280;67937;52.488;20.952;2023-04-29T12:21:26;100350.41;;;19.59;38.22
78615;BME280;67937;52.488;20.952;2023-04-29T12:23:58;100353.48;;;19.65;39.55
78615;BME280;67937;52.488;20.952;2023-04-29T12:26:28;100358.14;;;19.56;38.69
78615;BME280;67937;52.488;20.952;2023-04-29T12:28:57;100353.83;;;19.29;38.79
78615;BME280;67937;52.488;20.952;2023-04-29T12:31:32;100350.30;;;19.27;39.37
78615;BME280;67937;52.488;20.952;2023-04-29T12:34:06;100347.76;;;19.65;38.34
78615;BME280;67937;52.488;20.952;2023-04-29T12:36:34;100345.59;;;19.74;37.86
78615;BME280;67937;52.488;20.952;2023-04-29T12:39:05;100344.22;;;19.66;38.62
78615;BME280;67937;52.488;20.952;2023-04-29T12:41:39;100342.98;;;19.84;39.53
78615;BME280;67937;52.488;20.952;2023-04-29T12:44:08;100339.95;;;19.91;38.14
78615;BME280;67937;52.488;20.952;2023-04-29T12:46:38;100343.87;;;19.81;38.19
78615;BME280;67937;52.488;20.952;2023-04-29T12:49:07;100342.73;;;19.83;38.28
78615;BME280;67937;52.488;20.952;2023-04-29T12:51:35;100347.98;;;19.51;38.26
78615;BME280;67937;52.488;20.952;2023-04-29T12:54:03;100344.69;;;19.10;39.12
78615;BME280;67937;52.488;20.952;2023-04-29T12:56:33;100342.45;;;19.08;39.15
78615;BME280;67937;52.488;20.952;2023-04-29T12:59:08;100337.95;;;18.85;39.70
78615;BME280;67937;52.488;20.952;2023-04-29T13:01:37;100337.38;;;18.78;40.41
78615;BME280;67937;52.488;20.952;2023-04-29T13:04:05;100332.17;;;18.70;40.49
78615;BME280;67937;52.488;20.952;2023-04-29T13:06:34;100330.84;;;18.75;40.25
78615;BME280;67937;52.488;20.952;2023-04-29T13:09:06;100325.92;;;18.65;40.53
78615;BME280;67937;52.488;20.952;2023-04-29T13:11:37;100323.64;;;18.68;41.04
78615;BME280;67937;52.488;20.952;2023-04-29T13:14:06;100321.30;;;18.71;41.36
78615;BME280;67937;52.488;20.952;2023-04-29T13:16:34;100323.77;;;18.61;40.94
78615;BME280;67937;52.488;20.952;2023-04-29T13:19:02;100317.34;;;18.73;41.03